createdAt,value
2018-11-01T00:01:05.727Z,1.40
2018-11-01T00:03:34.121Z,1.12
2018-11-01T00:06:02.238Z,1.20
2018-11-01T00:08:30.359Z,1.30
2018-11-01T00:10:58.473Z,1.07
2018-11-01T00:13:26.686Z,1.30
2018-11-01T00:15:54.793Z,1.40
2018-11-01T00:18:22.913Z,1.40
2018-11-01T00:20:51.013Z,1.50
2018-11-01T00:23:19.128Z,0.93
2018-11-01T00:25:47.236Z,1.30
2018-11-01T00:28:15.354Z,1.77
2018-11-01T00:30:43.470Z,1.43
2018-11-01T00:33:11.581Z,1.20
2018-11-01T00:35:39.689Z,1.32
2018-11-01T00:38:07.797Z,1.50
2018-11-01T00:40:35.921Z,1.10
2018-11-01T00:43:04.025Z,1.40
2018-11-01T00:45:32.129Z,1.87
2018-11-01T00:48:00.244Z,1.50
2018-11-01T00:50:28.362Z,1.35
2018-11-01T00:52:56.468Z,1.65
2018-11-01T00:55:24.569Z,2.00
2018-11-01T00:57:58.491Z,1.73
2018-11-01T01:00:26.580Z,1.40
2018-11-01T01:02:54.690Z,1.30
2018-11-01T01:05:22.813Z,1.32
2018-11-01T01:07:50.930Z,1.50
2018-11-01T01:10:19.088Z,1.13
2018-11-01T01:12:48.111Z,1.25
2018-11-01T01:15:16.217Z,1.83
2018-11-01T01:17:44.329Z,1.43
2018-11-01T01:20:14.592Z,1.27
2018-11-01T01:22:43.781Z,1.43
2018-11-01T01:25:13.177Z,1.13
2018-11-01T01:27:41.315Z,1.37
2018-11-01T01:30:11.843Z,1.40
2018-11-01T01:32:39.961Z,1.40
2018-11-01T01:35:09.050Z,1.40
2018-11-01T01:37:37.220Z,1.40
2018-11-01T01:40:05.998Z,1.40
2018-11-01T01:42:36.663Z,1.60
2018-11-01T01:45:06.410Z,1.60
2018-11-01T01:47:35.294Z,1.33
2018-11-01T01:50:03.642Z,1.47
2018-11-01T01:52:31.769Z,1.13
2018-11-01T01:54:59.901Z,1.40
2018-11-01T01:57:28.025Z,1.50
2018-11-01T01:59:56.133Z,1.47
2018-11-01T02:02:24.236Z,1.50
2018-11-01T02:04:52.357Z,1.00
2018-11-01T02:07:20.453Z,1.53
2018-11-01T02:09:48.564Z,1.50
2018-11-01T02:12:16.668Z,1.90
2018-11-01T02:14:44.857Z,1.63
2018-11-01T02:17:12.968Z,1.20
2018-11-01T02:19:41.093Z,1.45
2018-11-01T02:22:09.237Z,1.40
2018-11-01T02:24:37.342Z,1.72
2018-11-01T02:27:05.782Z,1.93
2018-11-01T02:29:33.961Z,1.40
2018-11-01T02:32:02.077Z,1.50
2018-11-01T02:34:30.186Z,1.60
2018-11-01T02:36:58.334Z,1.50
2018-11-01T02:39:26.428Z,1.37
2018-11-01T02:41:54.537Z,1.60
2018-11-01T02:44:22.658Z,1.35
2018-11-01T02:46:50.777Z,1.50
2018-11-01T02:49:18.909Z,1.85
2018-11-01T02:51:47.050Z,1.70
2018-11-01T02:54:15.177Z,1.72
2018-11-01T02:56:43.417Z,1.80
2018-11-01T02:59:11.862Z,1.55
2018-11-01T03:01:39.974Z,1.57
2018-11-01T03:04:08.094Z,1.60
2018-11-01T03:06:36.209Z,1.57
2018-11-01T03:09:05.593Z,1.50
2018-11-01T03:11:33.709Z,1.60
2018-11-01T03:14:01.828Z,1.80
2018-11-01T03:16:29.954Z,1.50
2018-11-01T03:18:58.120Z,1.70
2018-11-01T03:21:26.256Z,1.60
2018-11-01T03:23:54.342Z,1.50
2018-11-01T03:26:22.464Z,1.82
2018-11-01T03:28:50.566Z,1.50
2018-11-01T03:31:18.728Z,2.05
2018-11-01T03:33:46.858Z,1.50
2018-11-01T03:36:14.998Z,1.98
2018-11-01T03:38:43.173Z,1.82
2018-11-01T03:41:11.291Z,1.70
2018-11-01T03:43:39.430Z,1.30
2018-11-01T03:46:07.582Z,2.37
2018-11-01T03:48:35.719Z,1.85
2018-11-01T03:51:03.856Z,1.60
2018-11-01T03:53:32.055Z,1.40
2018-11-01T03:56:00.118Z,1.72
2018-11-01T03:58:28.265Z,1.55
2018-11-01T04:00:56.410Z,2.47
2018-11-01T04:03:24.569Z,1.70
2018-11-01T04:05:52.708Z,1.85
2018-11-01T04:08:20.843Z,1.62
2018-11-01T04:10:48.969Z,1.65
2018-11-01T04:13:17.134Z,1.55
2018-11-01T04:15:45.265Z,1.45
2018-11-01T04:18:13.421Z,2.08
2018-11-01T04:20:41.571Z,1.42
2018-11-01T04:23:09.756Z,1.90
2018-11-01T04:25:37.855Z,1.90
2018-11-01T04:28:06.001Z,1.75
2018-11-01T04:30:34.104Z,1.75
2018-11-01T04:33:02.231Z,1.75
2018-11-01T04:35:30.341Z,1.70
2018-11-01T04:37:58.450Z,1.87
2018-11-01T04:40:26.597Z,1.80
2018-11-01T04:42:54.694Z,1.65
2018-11-01T04:45:22.788Z,1.60
2018-11-01T04:47:50.899Z,1.92
2018-11-01T04:50:19.012Z,1.85
2018-11-01T04:52:47.124Z,1.70
2018-11-01T04:55:15.217Z,2.00
2018-11-01T04:57:43.371Z,1.70
2018-11-01T05:00:13.069Z,1.90
2018-11-01T05:02:41.645Z,2.40
2018-11-01T05:05:09.757Z,2.17
2018-11-01T05:07:38.329Z,1.82
2018-11-01T05:10:07.391Z,2.42
2018-11-01T05:12:35.693Z,2.17
2018-11-01T05:15:04.010Z,2.02
2018-11-01T05:17:32.041Z,2.08
2018-11-01T05:20:00.144Z,1.87
2018-11-01T05:22:28.268Z,2.17
2018-11-01T05:24:56.373Z,2.50
2018-11-01T05:27:24.488Z,1.77
2018-11-01T05:29:52.648Z,1.90
2018-11-01T05:32:20.768Z,1.85
2018-11-01T05:34:48.908Z,2.77
2018-11-01T05:37:17.043Z,2.22
2018-11-01T05:39:45.178Z,2.02
2018-11-01T05:42:13.310Z,2.45
2018-11-01T05:44:41.431Z,2.00
2018-11-01T05:47:09.574Z,2.30
2018-11-01T05:49:37.717Z,2.10
2018-11-01T05:52:06.385Z,2.20
2018-11-01T05:54:34.526Z,1.98
2018-11-01T05:57:02.659Z,2.00
2018-11-01T05:59:30.776Z,1.98
2018-11-01T06:02:03.476Z,1.62
2018-11-01T06:04:31.641Z,2.15
2018-11-01T06:06:59.783Z,1.50
2018-11-01T06:09:29.686Z,2.05
2018-11-01T06:11:57.841Z,2.30
2018-11-01T06:14:26.311Z,2.08
2018-11-01T06:16:54.428Z,2.83
2018-11-01T06:19:22.561Z,2.15
2018-11-01T06:21:50.739Z,2.35
2018-11-01T06:24:18.984Z,2.12
2018-11-01T06:26:47.112Z,2.20
2018-11-01T06:29:15.245Z,2.50
2018-11-01T06:31:43.401Z,2.25
2018-11-01T06:34:17.060Z,2.30
2018-11-01T06:36:45.197Z,2.87
2018-11-01T06:39:17.649Z,2.60
2018-11-01T06:41:45.782Z,2.70
2018-11-01T06:44:13.939Z,1.98
2018-11-01T06:46:42.049Z,2.37
2018-11-01T06:49:10.177Z,2.45
2018-11-01T06:51:38.324Z,2.25
2018-11-01T06:54:06.452Z,2.40
2018-11-01T06:56:34.587Z,2.20
2018-11-01T06:59:02.795Z,2.80
2018-11-01T07:01:30.840Z,2.30
2018-11-01T07:03:58.998Z,2.20
2018-11-01T07:06:27.116Z,1.85
2018-11-01T07:08:55.267Z,2.00
2018-11-01T07:11:23.458Z,2.20
2018-11-01T07:13:51.565Z,2.70
2018-11-01T07:16:19.697Z,2.33
2018-11-01T07:18:47.833Z,2.40
2018-11-01T07:21:15.986Z,2.42
2018-11-01T07:23:44.131Z,2.60
2018-11-01T07:26:12.388Z,2.17
2018-11-01T07:28:40.407Z,2.50
2018-11-01T07:31:08.515Z,2.45
2018-11-01T07:33:36.672Z,2.60
2018-11-01T07:36:05.093Z,2.58
2018-11-01T07:38:33.200Z,3.17
2018-11-01T07:41:01.322Z,2.20
2018-11-01T07:43:29.437Z,2.35
2018-11-01T07:45:57.568Z,2.85
2018-11-01T07:48:25.748Z,2.25
2018-11-01T07:50:53.800Z,2.27
2018-11-01T07:53:21.941Z,2.47
2018-11-01T07:55:50.040Z,2.33
2018-11-01T07:58:18.176Z,2.25
2018-11-01T08:00:46.257Z,2.27
2018-11-01T08:03:14.357Z,2.50
2018-11-01T08:05:42.520Z,3.25
2018-11-01T08:08:10.580Z,3.00
2018-11-01T08:10:38.697Z,2.75
2018-11-01T08:13:06.565Z,2.60
2018-11-01T08:15:34.677Z,2.50
2018-11-01T08:18:02.785Z,2.35
2018-11-01T08:20:30.969Z,2.93
2018-11-01T08:22:59.015Z,2.55
2018-11-01T08:25:27.130Z,2.50
2018-11-01T08:27:55.235Z,2.55
2018-11-01T08:30:23.372Z,3.15
2018-11-01T08:32:51.521Z,2.90
2018-11-01T08:35:19.670Z,2.35
2018-11-01T08:37:47.817Z,4.20
2018-11-01T08:40:15.969Z,2.72
2018-11-01T08:42:54.461Z,2.87
2018-11-01T08:45:22.838Z,2.80
2018-11-01T08:47:50.970Z,3.07
2018-11-01T08:50:19.109Z,2.83
2018-11-01T08:52:47.262Z,2.97
2018-11-01T08:55:15.546Z,2.70
2018-11-01T08:57:44.646Z,3.80
2018-11-01T09:00:13.419Z,2.23
2018-11-01T09:02:42.317Z,3.10
2018-11-01T09:05:11.417Z,2.70
2018-11-01T09:07:40.017Z,2.53
2018-11-01T09:10:12.391Z,2.70
2018-11-01T09:12:40.873Z,3.05
2018-11-01T09:15:10.767Z,3.10
2018-11-01T09:17:38.918Z,2.50
2018-11-01T09:20:07.789Z,2.80
2018-11-01T09:22:35.930Z,3.17
2018-11-01T09:25:04.115Z,3.05
2018-11-01T09:27:32.281Z,3.03
2018-11-01T09:30:00.390Z,2.90
2018-11-01T09:32:28.517Z,3.10
2018-11-01T09:34:56.686Z,2.70
2018-11-01T09:37:24.899Z,3.50
2018-11-01T09:39:53.000Z,3.00
2018-11-01T09:42:21.109Z,2.90
2018-11-01T09:44:49.229Z,4.43
2018-11-01T09:47:17.708Z,3.70
2018-11-01T09:49:45.457Z,4.33
2018-11-01T09:52:13.560Z,5.40
2018-11-01T09:54:41.677Z,3.73
2018-11-01T09:57:09.800Z,3.20
2018-11-01T09:59:37.973Z,4.07
2018-11-01T10:02:06.430Z,4.20
2018-11-01T10:04:34.550Z,4.00
2018-11-01T10:07:02.689Z,3.00
2018-11-01T10:09:30.792Z,3.80
2018-11-01T10:11:58.950Z,3.60
2018-11-01T10:14:27.068Z,3.63
2018-11-01T10:16:55.419Z,3.17
2018-11-01T10:19:23.393Z,3.90
2018-11-01T10:21:51.593Z,3.10
2018-11-01T10:24:19.610Z,3.87
2018-11-01T10:26:47.713Z,3.10
2018-11-01T10:29:15.814Z,3.60
2018-11-01T10:31:43.949Z,4.07
2018-11-01T10:34:12.060Z,5.10
2018-11-01T10:36:40.165Z,3.90
2018-11-01T10:39:09.204Z,3.80
2018-11-01T10:41:37.302Z,3.70
2018-11-01T10:44:05.544Z,3.80
2018-11-01T10:46:33.673Z,3.27
2018-11-01T10:49:01.902Z,3.67
2018-11-01T10:51:30.029Z,3.77
2018-11-01T10:53:58.256Z,5.07
2018-11-01T10:56:26.556Z,4.30
2018-11-01T10:58:54.656Z,4.60
2018-11-01T11:01:28.100Z,4.40
2018-11-01T11:03:56.188Z,3.67
2018-11-01T11:06:24.298Z,3.97
2018-11-01T11:08:52.385Z,4.00
2018-11-01T11:11:20.488Z,4.10
2018-11-01T11:13:48.673Z,3.20
2018-11-01T11:16:16.794Z,3.80
2018-11-01T11:18:44.917Z,3.73
2018-11-01T11:21:13.386Z,4.13
2018-11-01T11:23:41.114Z,3.97
2018-11-01T11:26:09.216Z,4.27
2018-11-01T11:28:37.328Z,5.63
2018-11-01T11:31:05.547Z,15.33
2018-11-01T11:33:33.694Z,4.33
2018-11-01T11:36:01.962Z,4.27
2018-11-01T11:38:29.992Z,4.10
2018-11-01T11:40:58.133Z,4.47
2018-11-01T11:43:26.298Z,4.90
2018-11-01T11:45:54.579Z,4.20
2018-11-01T11:48:22.702Z,4.70
2018-11-01T11:50:50.847Z,4.50
2018-11-01T11:53:19.003Z,4.03
2018-11-01T11:55:47.151Z,3.47
2018-11-01T11:58:15.279Z,4.27
2018-11-01T12:00:43.427Z,5.10
2018-11-01T12:03:11.560Z,3.70
2018-11-01T12:05:39.939Z,4.40
2018-11-01T12:08:07.834Z,4.03
2018-11-01T12:10:35.981Z,3.90
2018-11-01T12:13:04.122Z,4.50
2018-11-01T12:15:32.257Z,4.43
2018-11-01T12:18:00.384Z,4.70
2018-11-01T12:20:28.588Z,4.63
2018-11-01T12:22:56.737Z,4.80
2018-11-01T12:25:24.875Z,4.60
2018-11-01T12:27:53.038Z,4.40
2018-11-01T12:30:21.137Z,4.30
2018-11-01T12:32:49.249Z,4.67
2018-11-01T12:35:17.413Z,4.00
2018-11-01T12:37:45.474Z,4.67
2018-11-01T12:40:13.844Z,5.33
2018-11-01T12:42:41.944Z,5.00
2018-11-01T12:45:11.425Z,5.20
2018-11-01T12:47:39.846Z,6.83
2018-11-01T12:50:09.697Z,9.17
2018-11-01T12:52:37.879Z,4.57
2018-11-01T12:55:06.007Z,6.90
2018-11-01T12:57:34.119Z,5.30
2018-11-01T13:00:02.213Z,5.80
2018-11-01T13:02:30.384Z,8.50
2018-11-01T13:04:58.429Z,4.47
2018-11-01T13:07:26.543Z,4.20
2018-11-01T13:09:54.637Z,4.97
2018-11-01T13:12:22.805Z,5.07
2018-11-01T13:14:50.955Z,8.57
2018-11-01T13:17:19.053Z,5.57
2018-11-01T13:19:47.166Z,9.27
2018-11-01T13:22:15.262Z,6.00
2018-11-01T13:24:43.361Z,9.40
2018-11-01T13:27:11.471Z,5.77
2018-11-01T13:29:39.600Z,4.10
2018-11-01T13:32:07.700Z,5.63
2018-11-01T13:34:35.840Z,6.30
2018-11-01T13:37:03.909Z,5.87
2018-11-01T13:39:32.155Z,5.40
2018-11-01T13:42:00.123Z,4.80
2018-11-01T13:44:28.229Z,5.30
2018-11-01T13:46:56.354Z,5.93
2018-11-01T13:49:24.497Z,5.43
2018-11-01T13:51:52.612Z,5.30
2018-11-01T13:54:20.771Z,6.07
2018-11-01T13:56:48.882Z,5.33
2018-11-01T13:59:16.994Z,5.43
2018-11-01T14:01:45.200Z,6.60
2018-11-01T14:04:13.437Z,5.58
2018-11-01T14:06:41.553Z,5.67
2018-11-01T14:09:09.713Z,5.05
2018-11-01T14:11:38.060Z,5.57
2018-11-01T14:14:06.415Z,9.13
2018-11-01T14:16:34.319Z,6.97
2018-11-01T14:19:02.445Z,5.63
2018-11-01T14:21:30.742Z,8.00
2018-11-01T14:23:58.881Z,6.30
2018-11-01T14:26:27.025Z,6.73
2018-11-01T14:28:55.144Z,7.10
2018-11-01T14:31:23.368Z,8.33
2018-11-01T14:33:51.479Z,7.10
2018-11-01T14:36:19.602Z,6.70
2018-11-01T14:38:47.704Z,6.93
2018-11-01T14:41:15.829Z,7.50
2018-11-01T14:43:43.933Z,7.00
2018-11-01T14:46:12.052Z,7.50
2018-11-01T14:48:40.205Z,7.47
2018-11-01T14:51:08.345Z,7.10
2018-11-01T14:53:36.624Z,7.13
2018-11-01T14:56:05.885Z,6.90
2018-11-01T14:58:34.216Z,6.77
2018-11-01T15:01:00.930Z,7.20
2018-11-01T15:03:29.086Z,7.25
2018-11-01T15:05:57.241Z,7.07
2018-11-01T15:08:25.551Z,7.90
2018-11-01T15:10:53.674Z,7.73
2018-11-01T15:13:21.882Z,9.67
2018-11-01T15:15:49.963Z,8.17
2018-11-01T15:18:18.064Z,7.93
2018-11-01T15:20:46.210Z,9.27
2018-11-01T15:23:14.314Z,8.43
2018-11-01T15:25:42.530Z,9.75
2018-11-01T15:28:10.761Z,8.23
2018-11-01T15:30:38.873Z,10.73
2018-11-01T15:33:06.978Z,8.20
2018-11-01T15:35:35.095Z,8.63
2018-11-01T15:38:03.206Z,9.35
2018-11-01T15:40:31.319Z,8.83
2018-11-01T15:42:59.445Z,7.78
2018-11-01T15:45:27.597Z,10.20
2018-11-01T15:47:55.716Z,9.45
2018-11-01T15:50:24.650Z,10.25
2018-11-01T15:52:52.765Z,10.40
2018-11-01T15:55:20.878Z,9.48
2018-11-01T15:57:48.992Z,12.25
2018-11-01T16:00:17.093Z,10.15
2018-11-01T16:02:45.572Z,9.35
2018-11-01T16:05:20.481Z,10.55
2018-11-01T16:07:48.614Z,11.95
2018-11-01T16:10:16.812Z,10.60
2018-11-01T16:12:44.845Z,9.80
2018-11-01T16:15:14.353Z,16.93
2018-11-01T16:17:42.507Z,9.88
2018-11-01T16:20:10.806Z,10.48
2018-11-01T16:22:39.696Z,10.80
2018-11-01T16:25:07.886Z,9.45
2018-11-01T16:27:36.349Z,15.43
2018-11-01T16:30:05.020Z,10.48
2018-11-01T16:32:33.164Z,23.67
2018-11-01T16:35:01.351Z,19.75
2018-11-01T16:37:29.908Z,12.28
2018-11-01T16:39:58.146Z,12.05
2018-11-01T16:42:26.334Z,10.72
2018-11-01T16:44:54.464Z,10.38
2018-11-01T16:47:22.608Z,10.38
2018-11-01T16:49:50.732Z,10.45
2018-11-01T16:52:18.897Z,12.23
2018-11-01T16:54:47.098Z,10.05
2018-11-01T16:57:15.249Z,12.35
2018-11-01T16:59:43.426Z,10.43
2018-11-01T17:02:11.588Z,10.53
2018-11-01T17:04:39.741Z,11.63
2018-11-01T17:07:08.499Z,11.30
2018-11-01T17:09:36.652Z,14.28
2018-11-01T17:12:05.393Z,12.15
2018-11-01T17:14:33.548Z,11.70
2018-11-01T17:17:01.681Z,13.48
2018-11-01T17:19:29.845Z,10.30
2018-11-01T17:21:58.041Z,10.85
2018-11-01T17:24:26.207Z,11.33
2018-11-01T17:26:54.350Z,10.65
2018-11-01T17:29:22.485Z,9.80
2018-11-01T17:31:50.627Z,13.28
2018-11-01T17:34:18.793Z,10.15
2018-11-01T17:36:46.874Z,11.03
2018-11-01T17:39:15.053Z,14.35
2018-11-01T17:41:43.265Z,19.45
2018-11-01T17:44:11.437Z,11.60
2018-11-01T17:46:39.541Z,10.60
2018-11-01T17:49:07.945Z,11.18
2018-11-01T17:51:36.076Z,10.55
2018-11-01T17:54:04.201Z,16.13
2018-11-01T17:56:32.407Z,11.20
2018-11-01T17:59:00.524Z,13.05
2018-11-01T18:01:28.660Z,12.93
2018-11-01T18:03:56.788Z,12.03
2018-11-01T18:06:24.902Z,12.33
2018-11-01T18:08:53.063Z,12.13
2018-11-01T18:11:21.153Z,10.80
2018-11-01T18:13:49.276Z,11.05
2018-11-01T18:16:17.380Z,10.58
2018-11-01T18:18:45.514Z,11.97
2018-11-01T18:21:13.639Z,10.53
2018-11-01T18:23:41.752Z,10.55
2018-11-01T18:26:09.906Z,10.25
2018-11-01T18:28:38.148Z,11.12
2018-11-01T18:31:06.246Z,10.50
2018-11-01T18:33:34.502Z,10.13
2018-11-01T18:36:02.645Z,10.60
2018-11-01T18:38:30.790Z,10.28
2018-11-01T18:40:58.984Z,10.43
2018-11-01T18:43:27.126Z,15.72
2018-11-01T18:45:55.464Z,11.65
2018-11-01T18:48:23.724Z,12.30
2018-11-01T18:50:51.755Z,10.80
2018-11-01T18:53:19.888Z,10.63
2018-11-01T18:55:48.046Z,9.85
2018-11-01T18:58:16.188Z,10.00
2018-11-01T19:00:44.396Z,9.60
2018-11-01T19:03:12.518Z,10.18
2018-11-01T19:05:40.682Z,10.05
2018-11-01T19:08:08.842Z,10.15
2018-11-01T19:10:36.957Z,10.48
2018-11-01T19:13:05.126Z,10.28
2018-11-01T19:15:33.260Z,10.38
2018-11-01T19:18:01.439Z,10.60
2018-11-01T19:20:29.723Z,10.77
2018-11-01T19:22:57.856Z,10.75
2018-11-01T19:25:26.035Z,11.30
2018-11-01T19:27:54.310Z,9.53
2018-11-01T19:30:22.389Z,10.10
2018-11-01T19:32:50.519Z,11.48
2018-11-01T19:35:18.633Z,11.40
2018-11-01T19:37:46.744Z,11.57
2018-11-01T19:40:15.914Z,11.33
2018-11-01T19:42:44.599Z,11.55
2018-11-01T19:45:12.776Z,11.48
2018-11-01T19:47:40.898Z,11.20
2018-11-01T19:50:10.903Z,10.50
2018-11-01T19:52:39.022Z,11.08
2018-11-01T19:55:07.164Z,10.25
2018-11-01T19:57:35.293Z,10.28
2018-11-01T20:00:03.404Z,10.75
2018-11-01T20:02:31.956Z,10.10
2018-11-01T20:05:00.099Z,9.50
2018-11-01T20:07:28.285Z,11.60
2018-11-01T20:09:56.422Z,11.00
2018-11-01T20:12:24.539Z,10.93
2018-11-01T20:14:52.754Z,9.78
2018-11-01T20:17:20.793Z,10.78
2018-11-01T20:19:49.066Z,10.30
2018-11-01T20:22:17.181Z,10.93
2018-11-01T20:24:45.302Z,10.75
2018-11-01T20:27:13.425Z,11.25
2018-11-01T20:29:41.579Z,10.72
2018-11-01T20:32:09.755Z,10.95
2018-11-01T20:34:37.928Z,12.00
2018-11-01T20:37:06.077Z,12.37
2018-11-01T20:39:34.222Z,11.53
2018-11-01T20:42:02.387Z,11.65
2018-11-01T20:44:30.692Z,12.53
2018-11-01T20:46:58.848Z,12.40
2018-11-01T20:49:27.007Z,13.70
2018-11-01T20:51:55.154Z,14.58
2018-11-01T20:54:23.314Z,13.62
2018-11-01T20:56:51.477Z,14.98
2018-11-01T20:59:19.830Z,13.20
2018-11-01T21:01:48.133Z,13.85
2018-11-01T21:04:16.269Z,14.60
2018-11-01T21:06:44.444Z,14.15
2018-11-01T21:09:12.824Z,12.65
2018-11-01T21:11:41.200Z,13.32
2018-11-01T21:14:09.156Z,14.83
2018-11-01T21:16:43.916Z,13.20
2018-11-01T21:19:12.021Z,14.40
2018-11-01T21:21:40.271Z,14.17
2018-11-01T21:24:08.482Z,14.00
2018-11-01T21:26:36.762Z,13.13
2018-11-01T21:29:05.233Z,15.10
2018-11-01T21:31:33.314Z,14.28
2018-11-01T21:34:01.463Z,14.63
2018-11-01T21:36:29.619Z,14.03
2018-11-01T21:38:57.909Z,14.50
2018-11-01T21:41:26.144Z,13.70
2018-11-01T21:43:54.368Z,13.65
2018-11-01T21:46:22.525Z,13.57
2018-11-01T21:48:50.672Z,13.80
2018-11-01T21:51:18.775Z,13.63
2018-11-01T21:53:46.889Z,14.63
2018-11-01T21:56:15.058Z,13.67
2018-11-01T21:58:43.178Z,13.60
2018-11-01T22:01:11.443Z,11.00
2018-11-01T22:03:39.538Z,12.67
2018-11-01T22:06:07.712Z,12.83
2018-11-01T22:08:35.836Z,12.17
2018-11-01T22:11:03.962Z,12.37
2018-11-01T22:13:32.090Z,12.33
2018-11-01T22:16:00.209Z,13.00
2018-11-01T22:18:28.488Z,12.95
2018-11-01T22:20:56.610Z,13.08
2018-11-01T22:23:24.729Z,12.03
2018-11-01T22:25:52.849Z,13.07
2018-11-01T22:28:21.104Z,12.68
2018-11-01T22:30:49.094Z,14.00
2018-11-01T22:33:17.223Z,13.43
2018-11-01T22:35:45.341Z,12.55
2018-11-01T22:38:13.523Z,11.83
2018-11-01T22:40:41.574Z,12.53
2018-11-01T22:43:09.703Z,12.30
2018-11-01T22:45:37.817Z,11.70
2018-11-01T22:48:05.934Z,11.97
2018-11-01T22:50:34.076Z,12.20
2018-11-01T22:53:02.181Z,11.25
2018-11-01T22:55:30.319Z,11.20
2018-11-01T22:57:58.437Z,11.45
2018-11-01T23:00:26.561Z,11.78
2018-11-01T23:02:54.682Z,11.00
2018-11-01T23:05:22.800Z,11.77
2018-11-01T23:07:50.934Z,11.07
2018-11-01T23:10:19.054Z,11.43
2018-11-01T23:12:47.162Z,11.27
2018-11-01T23:15:15.268Z,11.63
2018-11-01T23:17:43.648Z,9.90
2018-11-01T23:20:12.742Z,11.17
2018-11-01T23:22:40.912Z,11.30
2018-11-01T23:25:09.041Z,10.37
2018-11-01T23:27:37.202Z,10.43
2018-11-01T23:30:05.621Z,9.70
2018-11-01T23:32:33.724Z,10.57
2018-11-01T23:35:01.854Z,10.08
2018-11-01T23:37:35.421Z,9.63
2018-11-01T23:40:08.894Z,9.90
2018-11-01T23:42:42.415Z,9.93
2018-11-01T23:45:15.793Z,9.03
2018-11-01T23:47:49.269Z,10.57
2018-11-01T23:50:20.729Z,9.97
2018-11-01T23:52:52.085Z,9.00
2018-11-01T23:55:20.216Z,8.63
2018-11-01T23:57:48.324Z,8.40
